Time,TemperatureF,DewpointF,PressureIn,WindDirection,WindDirectionDegrees,WindSpeedMPH,WindSpeedGustMPH,Humidity,HourlyPrecipIn,Conditions,Clouds,dailyrainin,SoftwareType,DateUTC
2013-05-29 00:04:00,72.1,63.0,30.18,SSE,152,1.0,3.0,74,0.00,,,0.00,weatherlink.com 1.10,2013-05-29 04:04:00,
2013-05-29 00:19:00,71.6,63.0,30.18,SW,221,0.0,3.0,75,0.00,,,0.00,weatherlink.com 1.10,2013-05-29 04:19:00,
2013-05-29 00:34:00,71.2,63.0,30.18,SSE,155,1.0,3.0,76,0.00,,,0.00,weatherlink.com 1.10,2013-05-29 04:34:00,
2013-05-29 00:49:00,70.9,63.0,30.18,SE,131,0.0,3.0,77,0.00,,,0.00,weatherlink.com 1.10,2013-05-29 04:49:00,
2013-05-29 01:05:00,70.5,63.0,30.18,SSE,160,0.0,6.0,78,0.00,,,0.00,weatherlink.com 1.10,2013-05-29 05:05:00,
2013-05-29 01:20:00,70.0,63.0,30.18,SW,214,3.0,3.0,78,0.00,,,0.00,weatherlink.com 1.10,2013-05-29 05:20:00,
2013-05-29 01:35:00,69.6,63.0,30.18,SE,138,0.0,3.0,79,0.00,,,0.00,weatherlink.com 1.10,2013-05-29 05:35:00,
2013-05-29 01:50:00,69.2,63.0,30.18,South,179,1.0,3.0,80,0.00,,,0.00,weatherlink.com 1.10,2013-05-29 05:50:00,
2013-05-29 02:05:00,68.9,63.0,30.18,SE,146,2.0,3.0,81,0.00,,,0.00,weatherlink.com 1.10,2013-05-29 06:05:00,
2013-05-29 02:20:00,68.6,63.0,30.18,South,170,0.0,7.0,82,0.00,,,0.00,weatherlink.com 1.10,2013-05-29 06:20:00,
2013-05-29 02:35:00,68.1,63.0,30.17,SE,137,0.0,2.0,83,0.00,,,0.00,weatherlink.com 1.10,2013-05-29 06:35:00,
2013-05-29 02:50:00,67.7,63.0,30.17,NW,307,0.0,3.0,84,0.00,,,0.00,weatherlink.com 1.10,2013-05-29 06:50:00,
2013-05-29 03:05:00,67.4,63.0,30.18,SSE,150,0.0,3.0,85,0.00,,,0.00,weatherlink.com 1.10,2013-05-29 07:05:00,
2013-05-29 03:20:00,67.0,63.0,30.18,SE,134,0.0,1.0,86,0.00,,,0.00,weatherlink.com 1.10,2013-05-29 07:20:00,
2013-05-29 03:35:00,66.4,63.0,30.18,SE,146,0.0,1.0,87,0.00,,,0.00,weatherlink.com 1.10,2013-05-29 07:35:00,
2013-05-29 03:50:00,66.3,63.0,30.18,SSE,155,0.0,1.0,88,0.00,,,0.00,weatherlink.com 1.10,2013-05-29 07:50:00,
2013-05-29 04:05:00,66.1,63.0,30.18,SSE,159,0.0,1.0,89,0.00,,,0.00,weatherlink.com 1.10,2013-05-29 08:05:00,
2013-05-29 04:20:00,65.8,63.0,30.19,SE,135,0.0,1.0,89,0.00,,,0.00,weatherlink.com 1.10,2013-05-29 08:20:00,
2013-05-29 04:35:00,65.6,63.0,30.19,ESE,119,0.0,2.0,90,0.00,,,0.00,weatherlink.com 1.10,2013-05-29 08:35:00,
2013-05-29 04:50:00,65.4,63.0,30.20,South,169,0.0,1.0,91,0.00,,,0.00,weatherlink.com 1.10,2013-05-29 08:50:00,
2013-05-29 05:05:00,64.8,62.0,30.20,South,169,0.0,0.0,91,0.00,,,0.00,weatherlink.com 1.10,2013-05-29 09:05:00,
2013-05-29 05:20:00,64.2,62.0,30.20,South,169,0.0,0.0,92,0.00,,,0.00,weatherlink.com 1.10,2013-05-29 09:20:00,
2013-05-29 05:35:00,63.6,62.0,30.20,South,169,0.0,0.0,93,0.00,,,0.00,weatherlink.com 1.10,2013-05-29 09:35:00,
2013-05-29 05:50:00,63.2,62.0,30.21,South,169,0.0,0.0,94,0.00,,,0.00,weatherlink.com 1.10,2013-05-29 09:50:00,
2013-05-29 06:05:00,62.8,61.0,30.20,South,169,0.0,0.0,95,0.00,,,0.00,weatherlink.com 1.10,2013-05-29 10:05:00,
2013-05-29 06:20:00,62.7,61.0,30.21,South,169,0.0,0.0,95,0.00,,,0.00,weatherlink.com 1.10,2013-05-29 10:20:00,
2013-05-29 06:35:00,62.3,61.0,30.21,South,169,0.0,0.0,95,0.00,,,0.00,weatherlink.com 1.10,2013-05-29 10:35:00,
2013-05-29 06:50:00,62.6,62.0,30.21,ESE,110,0.0,0.0,96,0.00,,,0.00,weatherlink.com 1.10,2013-05-29 10:50:00,
2013-05-29 07:05:00,63.8,63.0,30.22,ENE,61,0.0,1.0,96,0.00,,,0.00,weatherlink.com 1.10,2013-05-29 11:05:00,
2013-05-29 07:20:00,64.9,64.0,30.22,SE,139,0.0,3.0,96,0.00,,,0.00,weatherlink.com 1.10,2013-05-29 11:20:00,
2013-05-29 07:35:00,66.1,65.0,30.22,ESE,108,0.0,3.0,95,0.00,,,0.00,weatherlink.com 1.10,2013-05-29 11:35:00,
2013-05-29 07:50:00,67.6,65.0,30.22,NNW,335,1.0,2.0,91,0.00,,,0.00,weatherlink.com 1.10,2013-05-29 11:50:00,
2013-05-29 08:05:00,69.0,65.0,30.23,NNW,330,0.0,2.0,88,0.00,,,0.00,weatherlink.com 1.10,2013-05-29 12:05:00,
2013-05-29 08:20:00,70.6,66.0,30.23,NNE,32,1.0,6.0,84,0.00,,,0.00,weatherlink.com 1.10,2013-05-29 12:20:00,
2013-05-29 08:35:00,71.4,66.0,30.22,NNW,330,0.0,6.0,82,0.00,,,0.00,weatherlink.com 1.10,2013-05-29 12:35:00,
2013-05-29 08:51:00,73.1,66.0,30.23,NNW,333,1.0,8.0,78,0.00,,,0.00,weatherlink.com 1.10,2013-05-29 12:51:00,
2013-05-29 09:06:00,74.5,67.0,30.24,ESE,104,3.0,7.0,76,0.00,,,0.00,weatherlink.com 1.10,2013-05-29 13:06:00,
2013-05-29 09:21:00,74.9,66.0,30.24,East,94,1.0,5.0,74,0.00,,,0.00,weatherlink.com 1.10,2013-05-29 13:21:00,
2013-05-29 09:36:00,75.7,66.0,30.24,WNW,302,2.0,6.0,72,0.00,,,0.00,weatherlink.com 1.10,2013-05-29 13:36:00,
2013-05-29 09:51:00,76.6,65.0,30.24,SSE,158,1.0,6.0,68,0.00,,,0.00,weatherlink.com 1.10,2013-05-29 13:51:00,
2013-05-29 10:06:00,77.6,65.0,30.23,NE,41,3.0,5.0,65,0.00,,,0.00,weatherlink.com 1.10,2013-05-29 14:06:00,
2013-05-29 10:21:00,78.6,65.0,30.23,West,280,2.0,5.0,63,0.00,,,0.00,weatherlink.com 1.10,2013-05-29 14:21:00,
2013-05-29 10:36:00,80.5,66.0,30.23,ESE,110,2.0,2.0,61,0.00,,,0.00,weatherlink.com 1.10,2013-05-29 14:36:00,
2013-05-29 10:51:00,80.7,66.0,30.23,SSE,149,1.0,8.0,61,0.00,,,0.00,weatherlink.com 1.10,2013-05-29 14:51:00,
2013-05-29 11:06:00,80.3,65.0,30.24,NE,34,2.0,10.0,60,0.00,,,0.00,weatherlink.com 1.10,2013-05-29 15:06:00,
2013-05-29 11:21:00,80.7,66.0,30.23,SE,146,1.0,11.0,62,0.00,,,0.00,weatherlink.com 1.10,2013-05-29 15:21:00,
2013-05-29 11:36:00,82.0,65.0,30.23,ENE,71,2.0,4.0,57,0.00,,,0.00,weatherlink.com 1.10,2013-05-29 15:36:00,
2013-05-29 11:51:00,82.7,65.0,30.23,ESE,106,2.0,7.0,56,0.00,,,0.00,weatherlink.com 1.10,2013-05-29 15:51:00,
2013-05-29 12:06:00,82.9,64.0,30.23,East,98,1.0,8.0,54,0.00,,,0.00,weatherlink.com 1.10,2013-05-29 16:06:00,
2013-05-29 12:21:00,82.7,64.0,30.23,NNW,335,5.0,6.0,53,0.00,,,0.00,weatherlink.com 1.10,2013-05-29 16:21:00,
2013-05-29 12:36:00,84.8,66.0,30.23,NNW,338,2.0,4.0,54,0.00,,,0.00,weatherlink.com 1.10,2013-05-29 16:36:00,
2013-05-29 12:51:00,84.8,66.0,30.23,SSW,200,1.0,9.0,53,0.00,,,0.00,weatherlink.com 1.10,2013-05-29 16:51:00,
2013-05-29 13:06:00,85.7,65.0,30.22,WSW,251,1.0,7.0,50,0.00,,,0.00,weatherlink.com 1.10,2013-05-29 17:06:00,
2013-05-29 13:21:00,85.4,64.0,30.22,West,267,1.0,7.0,49,0.00,,,0.00,weatherlink.com 1.10,2013-05-29 17:21:00,
2013-05-29 13:36:00,86.2,66.0,30.21,South,169,4.0,7.0,52,0.00,,,0.00,weatherlink.com 1.10,2013-05-29 17:36:00,
2013-05-29 13:51:00,85.5,65.0,30.20,SSE,163,1.0,6.0,51,0.00,,,0.00,weatherlink.com 1.10,2013-05-29 17:51:00,
2013-05-29 14:06:00,85.5,65.0,30.20,ESE,113,0.0,10.0,51,0.00,,,0.00,weatherlink.com 1.10,2013-05-29 18:06:00,
2013-05-29 14:21:00,85.4,65.0,30.20,SSE,167,2.0,10.0,50,0.00,,,0.00,weatherlink.com 1.10,2013-05-29 18:21:00,
2013-05-29 14:36:00,85.9,66.0,30.19,SE,142,5.0,6.0,52,0.00,,,0.00,weatherlink.com 1.10,2013-05-29 18:36:00,
2013-05-29 14:51:00,85.0,66.0,30.19,NW,326,1.0,7.0,53,0.00,,,0.00,weatherlink.com 1.10,2013-05-29 18:51:00,
2013-05-29 15:06:00,85.8,66.0,30.19,South,172,2.0,5.0,52,0.00,,,0.00,weatherlink.com 1.10,2013-05-29 19:06:00,
2013-05-29 15:21:00,85.2,66.0,30.19,South,170,2.0,11.0,52,0.00,,,0.00,weatherlink.com 1.10,2013-05-29 19:21:00,
2013-05-29 15:36:00,85.5,66.0,30.18,NNW,329,1.0,9.0,53,0.00,,,0.00,weatherlink.com 1.10,2013-05-29 19:36:00,
2013-05-29 15:51:00,84.2,66.0,30.18,WSW,243,0.0,9.0,54,0.00,,,0.00,weatherlink.com 1.10,2013-05-29 19:51:00,
2013-05-29 16:06:00,85.2,66.0,30.18,SE,139,1.0,10.0,52,0.00,,,0.00,weatherlink.com 1.10,2013-05-29 20:06:00,
2013-05-29 16:21:00,86.1,66.0,30.18,SSW,194,2.0,7.0,51,0.00,,,0.00,weatherlink.com 1.10,2013-05-29 20:21:00,
2013-05-29 16:36:00,85.8,66.0,30.18,ESE,106,0.0,9.0,51,0.00,,,0.00,weatherlink.com 1.10,2013-05-29 20:36:00,
2013-05-29 16:51:00,84.9,65.0,30.17,SE,138,0.0,6.0,52,0.00,,,0.00,weatherlink.com 1.10,2013-05-29 20:51:00,
2013-05-29 17:06:00,83.8,66.0,30.18,SW,219,1.0,8.0,55,0.00,,,0.00,weatherlink.com 1.10,2013-05-29 21:06:00,
2013-05-29 17:21:00,84.0,66.0,30.17,SE,135,1.0,6.0,54,0.00,,,0.00,weatherlink.com 1.10,2013-05-29 21:21:00,
2013-05-29 17:36:00,83.3,64.0,30.17,SE,133,2.0,7.0,53,0.00,,,0.00,weatherlink.com 1.10,2013-05-29 21:36:00,
2013-05-29 17:51:00,83.7,65.0,30.17,ESE,117,2.0,6.0,53,0.00,,,0.00,weatherlink.com 1.10,2013-05-29 21:51:00,
2013-05-29 18:06:00,84.3,65.0,30.17,SSW,203,1.0,6.0,52,0.00,,,0.00,weatherlink.com 1.10,2013-05-29 22:06:00,
2013-05-29 18:21:00,83.7,64.0,30.18,SSW,201,0.0,6.0,52,0.00,,,0.00,weatherlink.com 1.10,2013-05-29 22:21:00,
2013-05-29 18:36:00,82.9,64.0,30.17,ESE,103,0.0,-999.0,54,-99.99,,,0.00,weatherlink.com 1.10,2013-05-29 22:36:00,
2013-05-29 18:51:00,82.6,65.0,30.17,NW,325,0.0,5.0,55,0.00,,,0.00,weatherlink.com 1.10,2013-05-29 22:51:00,
2013-05-29 19:06:00,82.0,65.0,30.16,South,175,2.0,7.0,56,0.00,,,0.00,weatherlink.com 1.10,2013-05-29 23:06:00,
2013-05-29 19:21:00,81.4,65.0,30.16,SSE,162,2.0,2.0,58,0.00,,,0.00,weatherlink.com 1.10,2013-05-29 23:21:00,
2013-05-29 19:36:00,80.6,65.0,30.16,South,173,0.0,3.0,59,0.00,,,0.00,weatherlink.com 1.10,2013-05-29 23:36:00,
2013-05-29 19:52:00,79.9,65.0,30.16,SSE,153,0.0,3.0,61,0.00,,,0.00,weatherlink.com 1.10,2013-05-29 23:52:00,
2013-05-29 20:07:00,78.9,65.0,30.16,SW,218,0.0,3.0,63,0.00,,,0.00,weatherlink.com 1.10,2013-05-30 00:07:00,
2013-05-29 20:22:00,77.3,66.0,30.16,SW,228,0.0,1.0,68,0.00,,,0.00,weatherlink.com 1.10,2013-05-30 00:22:00,
2013-05-29 20:37:00,75.5,66.0,30.16,SW,228,0.0,0.0,72,0.00,,,0.00,weatherlink.com 1.10,2013-05-30 00:37:00,
2013-05-29 20:52:00,74.1,66.0,30.16,SW,228,0.0,0.0,75,0.00,,,0.00,weatherlink.com 1.10,2013-05-30 00:52:00,
2013-05-29 21:07:00,72.8,66.0,30.16,SW,229,0.0,0.0,78,0.00,,,0.00,weatherlink.com 1.10,2013-05-30 01:07:00,
2013-05-29 21:22:00,71.8,65.0,30.17,SW,228,0.0,0.0,80,0.00,,,0.00,weatherlink.com 1.10,2013-05-30 01:22:00,
2013-05-29 21:37:00,70.9,65.0,30.17,SW,229,0.0,0.0,82,0.00,,,0.00,weatherlink.com 1.10,2013-05-30 01:37:00,
2013-05-29 21:52:00,70.2,65.0,30.18,SW,228,0.0,0.0,83,0.00,,,0.00,weatherlink.com 1.10,2013-05-30 01:52:00,
2013-05-29 22:07:00,69.9,65.0,30.18,SW,228,0.0,0.0,84,0.00,,,0.00,weatherlink.com 1.10,2013-05-30 02:07:00,
2013-05-29 22:22:00,71.8,65.0,30.19,SW,224,0.0,5.0,80,0.00,,,0.00,weatherlink.com 1.10,2013-05-30 02:22:00,
2013-05-29 22:37:00,73.5,66.0,30.20,SSE,159,1.0,6.0,76,0.00,,,0.00,weatherlink.com 1.10,2013-05-30 02:37:00,
2013-05-29 22:52:00,74.0,66.0,30.20,SW,222,1.0,6.0,75,0.00,,,0.00,weatherlink.com 1.10,2013-05-30 02:52:00,
2013-05-29 23:07:00,74.2,65.0,30.21,SE,146,0.0,11.0,74,0.00,,,0.00,weatherlink.com 1.10,2013-05-30 03:07:00,
2013-05-29 23:22:00,74.0,65.0,30.21,SW,228,2.0,6.0,74,0.00,,,0.00,weatherlink.com 1.10,2013-05-30 03:22:00,
2013-05-29 23:37:00,73.5,65.0,30.22,SE,146,1.0,3.0,75,0.00,,,0.00,weatherlink.com 1.10,2013-05-30 03:37:00,
2013-05-29 23:52:00,73.0,65.0,30.21,SE,146,2.0,4.0,76,0.00,,,0.00,weatherlink.com 1.10,2013-05-30 03:52:00,